sensor_id;sensor_type;location;lat;lon;timestamp;P1;durP1;ratioP1;P2;durP2;ratioP2
53545;SDS011;39432;51.902;10.844;2024-02-04T00:01:55;3.80;;;2.47;;
53545;SDS011;39432;51.902;10.844;2024-02-04T00:04:26;11.23;;;2.80;;
53545;SDS011;39432;51.902;10.844;2024-02-04T00:06:56;4.70;;;2.58;;
53545;SDS011;39432;51.902;10.844;2024-02-04T00:09:26;5.28;;;2.85;;
53545;SDS011;39432;51.902;10.844;2024-02-04T00:12:00;5.13;;;2.85;;
53545;SDS011;39432;51.902;10.844;2024-02-04T00:14:33;4.65;;;3.05;;
53545;SDS011;39432;51.902;10.844;2024-02-04T00:17:03;5.18;;;3.22;;
53545;SDS011;39432;51.902;10.844;2024-02-04T00:19:33;4.80;;;3.50;;
53545;SDS011;39432;51.902;10.844;2024-02-04T00:22:03;4.38;;;3.30;;
53545;SDS011;39432;51.902;10.844;2024-02-04T00:24:33;5.40;;;3.40;;
53545;SDS011;39432;51.902;10.844;2024-02-04T00:27:03;8.68;;;3.90;;
53545;SDS011;39432;51.902;10.844;2024-02-04T00:29:36;4.47;;;3.00;;
53545;SDS011;39432;51.902;10.844;2024-02-04T00:32:07;8.82;;;4.25;;
53545;SDS011;39432;51.902;10.844;2024-02-04T00:34:37;7.30;;;4.07;;
53545;SDS011;39432;51.902;10.844;2024-02-04T00:37:07;6.75;;;3.72;;
53545;SDS011;39432;51.902;10.844;2024-02-04T00:39:37;7.40;;;3.17;;
53545;SDS011;39432;51.902;10.844;2024-02-04T00:42:07;5.30;;;3.80;;
53545;SDS011;39432;51.902;10.844;2024-02-04T00:44:40;5.25;;;3.55;;
53545;SDS011;39432;51.902;10.844;2024-02-04T00:47:10;4.75;;;3.63;;
53545;SDS011;39432;51.902;10.844;2024-02-04T00:49:41;4.90;;;3.42;;
53545;SDS011;39432;51.902;10.844;2024-02-04T00:52:11;5.68;;;3.67;;
53545;SDS011;39432;51.902;10.844;2024-02-04T00:54:41;6.60;;;3.22;;
53545;SDS011;39432;51.902;10.844;2024-02-04T00:57:11;5.45;;;3.50;;
53545;SDS011;39432;51.902;10.844;2024-02-04T00:59:44;4.72;;;3.45;;
53545;SDS011;39432;51.902;10.844;2024-02-04T01:02:13;4.80;;;3.70;;
53545;SDS011;39432;51.902;10.844;2024-02-04T01:04:43;5.00;;;3.45;;
53545;SDS011;39432;51.902;10.844;2024-02-04T01:07:15;7.00;;;4.50;;
53545;SDS011;39432;51.902;10.844;2024-02-04T01:09:45;8.55;;;3.70;;
53545;SDS011;39432;51.902;10.844;2024-02-04T01:12:15;4.75;;;3.88;;
53545;SDS011;39432;51.902;10.844;2024-02-04T01:14:47;5.55;;;4.13;;
53545;SDS011;39432;51.902;10.844;2024-02-04T01:17:18;5.70;;;3.97;;
53545;SDS011;39432;51.902;10.844;2024-02-04T01:19:48;4.97;;;4.13;;
53545;SDS011;39432;51.902;10.844;2024-02-04T01:22:18;4.72;;;3.90;;
53545;SDS011;39432;51.902;10.844;2024-02-04T01:24:52;8.57;;;4.28;;
53545;SDS011;39432;51.902;10.844;2024-02-04T01:27:23;5.72;;;4.05;;
53545;SDS011;39432;51.902;10.844;2024-02-04T01:29:55;6.10;;;4.18;;
53545;SDS011;39432;51.902;10.844;2024-02-04T01:32:26;5.97;;;3.88;;
53545;SDS011;39432;51.902;10.844;2024-02-04T01:34:56;6.47;;;3.70;;
53545;SDS011;39432;51.902;10.844;2024-02-04T01:37:26;6.35;;;4.10;;
53545;SDS011;39432;51.902;10.844;2024-02-04T01:39:56;4.57;;;3.47;;
53545;SDS011;39432;51.902;10.844;2024-02-04T01:42:26;10.63;;;3.75;;
53545;SDS011;39432;51.902;10.844;2024-02-04T01:44:59;6.40;;;3.63;;
53545;SDS011;39432;51.902;10.844;2024-02-04T01:47:29;7.15;;;3.55;;
53545;SDS011;39432;51.902;10.844;2024-02-04T01:49:59;6.18;;;3.33;;
53545;SDS011;39432;51.902;10.844;2024-02-04T01:52:30;5.13;;;3.30;;
53545;SDS011;39432;51.902;10.844;2024-02-04T01:55:00;8.45;;;3.33;;
53545;SDS011;39432;51.902;10.844;2024-02-04T01:57:32;6.53;;;3.58;;
53545;SDS011;39432;51.902;10.844;2024-02-04T02:00:09;6.07;;;3.53;;
53545;SDS011;39432;51.902;10.844;2024-02-04T02:02:40;4.60;;;3.25;;
53545;SDS011;39432;51.902;10.844;2024-02-04T02:05:10;8.40;;;3.58;;
53545;SDS011;39432;51.902;10.844;2024-02-04T02:07:40;7.85;;;3.75;;
53545;SDS011;39432;51.902;10.844;2024-02-04T02:10:12;5.25;;;3.50;;
53545;SDS011;39432;51.902;10.844;2024-02-04T02:12:46;5.00;;;3.78;;
53545;SDS011;39432;51.902;10.844;2024-02-04T02:15:23;6.60;;;3.60;;
53545;SDS011;39432;51.902;10.844;2024-02-04T02:17:59;5.18;;;3.67;;
53545;SDS011;39432;51.902;10.844;2024-02-04T02:20:32;6.88;;;4.05;;
53545;SDS011;39432;51.902;10.844;2024-02-04T02:23:12;7.72;;;3.83;;
53545;SDS011;39432;51.902;10.844;2024-02-04T02:25:49;6.03;;;4.18;;
53545;SDS011;39432;51.902;10.844;2024-02-04T02:28:21;6.38;;;3.83;;
53545;SDS011;39432;51.902;10.844;2024-02-04T02:30:51;9.30;;;4.28;;
53545;SDS011;39432;51.902;10.844;2024-02-04T02:33:21;6.28;;;4.13;;
53545;SDS011;39432;51.902;10.844;2024-02-04T02:35:53;6.47;;;3.63;;
53545;SDS011;39432;51.902;10.844;2024-02-04T02:38:29;7.25;;;4.32;;
53545;SDS011;39432;51.902;10.844;2024-02-04T02:41:09;6.43;;;3.92;;
53545;SDS011;39432;51.902;10.844;2024-02-04T02:43:42;7.77;;;4.63;;
53545;SDS011;39432;51.902;10.844;2024-02-04T02:46:14;5.75;;;4.35;;
53545;SDS011;39432;51.902;10.844;2024-02-04T02:48:45;5.75;;;3.88;;
53545;SDS011;39432;51.902;10.844;2024-02-04T02:51:15;7.43;;;4.15;;
53545;SDS011;39432;51.902;10.844;2024-02-04T02:53:45;8.43;;;4.30;;
53545;SDS011;39432;51.902;10.844;2024-02-04T02:56:18;5.47;;;3.70;;
53545;SDS011;39432;51.902;10.844;2024-02-04T02:58:48;5.32;;;3.83;;
53545;SDS011;39432;51.902;10.844;2024-02-04T03:01:18;9.68;;;4.07;;
53545;SDS011;39432;51.902;10.844;2024-02-04T03:03:48;6.38;;;4.05;;
53545;SDS011;39432;51.902;10.844;2024-02-04T03:06:18;7.30;;;4.35;;
53545;SDS011;39432;51.902;10.844;2024-02-04T03:08:48;5.97;;;3.88;;
53545;SDS011;39432;51.902;10.844;2024-02-04T03:11:20;5.70;;;4.03;;
53545;SDS011;39432;51.902;10.844;2024-02-04T03:13:50;5.82;;;4.00;;
53545;SDS011;39432;51.902;10.844;2024-02-04T03:16:20;11.13;;;4.25;;
53545;SDS011;39432;51.902;10.844;2024-02-04T03:18:51;6.95;;;3.90;;
53545;SDS011;39432;51.902;10.844;2024-02-04T03:21:22;5.43;;;3.78;;
53545;SDS011;39432;51.902;10.844;2024-02-04T03:23:52;8.52;;;3.97;;
53545;SDS011;39432;51.902;10.844;2024-02-04T03:26:25;7.60;;;3.95;;
53545;SDS011;39432;51.902;10.844;2024-02-04T03:28:55;10.90;;;4.70;;
53545;SDS011;39432;51.902;10.844;2024-02-04T03:31:26;4.75;;;3.55;;
53545;SDS011;39432;51.902;10.844;2024-02-04T03:33:56;5.97;;;4.00;;
53545;SDS011;39432;51.902;10.844;2024-02-04T03:36:26;7.13;;;4.60;;
53545;SDS011;39432;51.902;10.844;2024-02-04T03:38:56;7.03;;;4.57;;
53545;SDS011;39432;51.902;10.844;2024-02-04T03:41:29;7.40;;;3.88;;
53545;SDS011;39432;51.902;10.844;2024-02-04T03:43:59;7.25;;;4.22;;
53545;SDS011;39432;51.902;10.844;2024-02-04T03:46:29;5.07;;;3.90;;
53545;SDS011;39432;51.902;10.844;2024-02-04T03:48:59;5.35;;;3.58;;
53545;SDS011;39432;51.902;10.844;2024-02-04T03:51:29;6.18;;;3.67;;
53545;SDS011;39432;51.902;10.844;2024-02-04T03:53:59;6.70;;;3.38;;
53545;SDS011;39432;51.902;10.844;2024-02-04T03:56:32;5.97;;;3.58;;
53545;SDS011;39432;51.902;10.844;2024-02-04T03:59:02;4.95;;;3.13;;
53545;SDS011;39432;51.902;10.844;2024-02-04T04:01:33;4.95;;;3.33;;
53545;SDS011;39432;51.902;10.844;2024-02-04T04:04:03;4.63;;;2.95;;
53545;SDS011;39432;51.902;10.844;2024-02-04T04:06:34;5.22;;;3.17;;
53545;SDS011;39432;51.902;10.844;2024-02-04T04:09:04;6.07;;;3.28;;
53545;SDS011;39432;51.902;10.844;2024-02-04T04:11:36;4.40;;;3.35;;
53545;SDS011;39432;51.902;10.844;2024-02-04T04:14:06;4.90;;;3.10;;
53545;SDS011;39432;51.902;10.844;2024-02-04T04:16:36;5.88;;;2.92;;
53545;SDS011;39432;51.902;10.844;2024-02-04T04:19:06;5.13;;;2.70;;
53545;SDS011;39432;51.902;10.844;2024-02-04T04:21:37;5.28;;;2.58;;
53545;SDS011;39432;51.902;10.844;2024-02-04T04:24:07;3.47;;;2.00;;
53545;SDS011;39432;51.902;10.844;2024-02-04T04:26:40;2.85;;;1.90;;
53545;SDS011;39432;51.902;10.844;2024-02-04T04:29:10;2.75;;;1.95;;
53545;SDS011;39432;51.902;10.844;2024-02-04T04:31:39;1.88;;;1.30;;
53545;SDS011;39432;51.902;10.844;2024-02-04T04:34:09;1.92;;;1.20;;
53545;SDS011;39432;51.902;10.844;2024-02-04T04:36:40;4.28;;;1.33;;
53545;SDS011;39432;51.902;10.844;2024-02-04T04:39:10;3.15;;;1.38;;
53545;SDS011;39432;51.902;10.844;2024-02-04T04:41:43;2.42;;;1.52;;
53545;SDS011;39432;51.902;10.844;2024-02-04T04:44:13;2.45;;;1.33;;
53545;SDS011;39432;51.902;10.844;2024-02-04T04:46:43;2.25;;;1.38;;
53545;SDS011;39432;51.902;10.844;2024-02-04T04:49:14;2.35;;;1.40;;
53545;SDS011;39432;51.902;10.844;2024-02-04T04:51:44;2.33;;;1.77;;
53545;SDS011;39432;51.902;10.844;2024-02-04T04:54:14;2.97;;;1.70;;
53545;SDS011;39432;51.902;10.844;2024-02-04T04:56:47;3.38;;;2.45;;
53545;SDS011;39432;51.902;10.844;2024-02-04T04:59:17;4.72;;;2.92;;
53545;SDS011;39432;51.902;10.844;2024-02-04T05:01:47;3.78;;;2.47;;
53545;SDS011;39432;51.902;10.844;2024-02-04T05:04:18;5.07;;;3.03;;
53545;SDS011;39432;51.902;10.844;2024-02-04T05:06:52;4.97;;;3.20;;
53545;SDS011;39432;51.902;10.844;2024-02-04T05:09:22;3.67;;;2.88;;
53545;SDS011;39432;51.902;10.844;2024-02-04T05:11:54;4.03;;;3.00;;
53545;SDS011;39432;51.902;10.844;2024-02-04T05:14:24;3.25;;;2.72;;
53545;SDS011;39432;51.902;10.844;2024-02-04T05:16:54;9.00;;;2.70;;
53545;SDS011;39432;51.902;10.844;2024-02-04T05:19:24;3.92;;;2.92;;
53545;SDS011;39432;51.902;10.844;2024-02-04T05:21:54;4.45;;;2.85;;
53545;SDS011;39432;51.902;10.844;2024-02-04T05:24:24;4.72;;;3.00;;
53545;SDS011;39432;51.902;10.844;2024-02-04T05:26:57;3.60;;;2.90;;
53545;SDS011;39432;51.902;10.844;2024-02-04T05:29:27;4.47;;;2.97;;
53545;SDS011;39432;51.902;10.844;2024-02-04T05:31:57;3.85;;;3.00;;
53545;SDS011;39432;51.902;10.844;2024-02-04T05:34:27;3.90;;;2.72;;
53545;SDS011;39432;51.902;10.844;2024-02-04T05:36:57;2.80;;;2.28;;
53545;SDS011;39432;51.902;10.844;2024-02-04T05:39:27;3.05;;;2.40;;
53545;SDS011;39432;51.902;10.844;2024-02-04T05:41:59;2.47;;;1.70;;
53545;SDS011;39432;51.902;10.844;2024-02-04T05:44:29;4.30;;;1.77;;
53545;SDS011;39432;51.902;10.844;2024-02-04T05:46:59;2.03;;;1.10;;
53545;SDS011;39432;51.902;10.844;2024-02-04T05:49:29;1.58;;;1.10;;
53545;SDS011;39432;51.902;10.844;2024-02-04T05:51:59;2.47;;;1.20;;
53545;SDS011;39432;51.902;10.844;2024-02-04T05:54:29;2.58;;;1.35;;
53545;SDS011;39432;51.902;10.844;2024-02-04T05:57:01;1.67;;;1.02;;
53545;SDS011;39432;51.902;10.844;2024-02-04T05:59:31;3.00;;;1.45;;
53545;SDS011;39432;51.902;10.844;2024-02-04T06:02:01;1.75;;;1.10;;
53545;SDS011;39432;51.902;10.844;2024-02-04T06:04:31;5.00;;;1.40;;
53545;SDS011;39432;51.902;10.844;2024-02-04T06:07:03;2.20;;;1.20;;
53545;SDS011;39432;51.902;10.844;2024-02-04T06:09:33;2.58;;;1.38;;
53545;SDS011;39432;51.902;10.844;2024-02-04T06:12:07;3.08;;;1.50;;
53545;SDS011;39432;51.902;10.844;2024-02-04T06:14:37;1.52;;;1.10;;
53545;SDS011;39432;51.902;10.844;2024-02-04T06:17:08;4.35;;;1.40;;
53545;SDS011;39432;51.902;10.844;2024-02-04T06:19:38;2.80;;;1.48;;
53545;SDS011;39432;51.902;10.844;2024-02-04T06:22:08;1.95;;;1.23;;
53545;SDS011;39432;51.902;10.844;2024-02-04T06:24:37;2.97;;;1.63;;
53545;SDS011;39432;51.902;10.844;2024-02-04T06:27:10;2.53;;;1.33;;
53545;SDS011;39432;51.902;10.844;2024-02-04T06:29:41;3.15;;;1.48;;
53545;SDS011;39432;51.902;10.844;2024-02-04T06:32:10;3.22;;;1.50;;
53545;SDS011;39432;51.902;10.844;2024-02-04T06:34:41;2.88;;;1.83;;
53545;SDS011;39432;51.902;10.844;2024-02-04T06:37:11;2.55;;;1.27;;
53545;SDS011;39432;51.902;10.844;2024-02-04T06:39:41;3.78;;;1.67;;
53545;SDS011;39432;51.902;10.844;2024-02-04T06:42:14;3.05;;;1.60;;
53545;SDS011;39432;51.902;10.844;2024-02-04T06:44:44;2.88;;;1.50;;
53545;SDS011;39432;51.902;10.844;2024-02-04T06:47:14;2.03;;;1.30;;
53545;SDS011;39432;51.902;10.844;2024-02-04T06:49:44;4.80;;;1.38;;
53545;SDS011;39432;51.902;10.844;2024-02-04T06:52:14;2.65;;;1.45;;
53545;SDS011;39432;51.902;10.844;2024-02-04T06:54:45;3.33;;;1.67;;
53545;SDS011;39432;51.902;10.844;2024-02-04T06:57:18;2.88;;;1.40;;
53545;SDS011;39432;51.902;10.844;2024-02-04T06:59:48;3.25;;;1.67;;
53545;SDS011;39432;51.902;10.844;2024-02-04T07:02:18;2.30;;;1.40;;
53545;SDS011;39432;51.902;10.844;2024-02-04T07:04:48;2.13;;;1.15;;
53545;SDS011;39432;51.902;10.844;2024-02-04T07:07:20;2.55;;;1.20;;
53545;SDS011;39432;51.902;10.844;2024-02-04T07:09:50;3.03;;;1.27;;
53545;SDS011;39432;51.902;10.844;2024-02-04T07:12:22;3.33;;;1.30;;
53545;SDS011;39432;51.902;10.844;2024-02-04T07:14:52;3.60;;;1.20;;
53545;SDS011;39432;51.902;10.844;2024-02-04T07:17:22;2.55;;;1.52;;
53545;SDS011;39432;51.902;10.844;2024-02-04T07:19:52;2.42;;;1.42;;
53545;SDS011;39432;51.902;10.844;2024-02-04T07:22:22;2.25;;;1.20;;
53545;SDS011;39432;51.902;10.844;2024-02-04T07:24:52;3.45;;;1.40;;
53545;SDS011;39432;51.902;10.844;2024-02-04T07:27:25;4.35;;;1.27;;
53545;SDS011;39432;51.902;10.844;2024-02-04T07:29:55;2.65;;;1.55;;
53545;SDS011;39432;51.902;10.844;2024-02-04T07:32:26;2.88;;;1.20;;
53545;SDS011;39432;51.902;10.844;2024-02-04T07:34:56;2.13;;;1.17;;
53545;SDS011;39432;51.902;10.844;2024-02-04T07:37:26;2.00;;;1.40;;
53545;SDS011;39432;51.902;10.844;2024-02-04T07:39:56;2.42;;;1.23;;
53545;SDS011;39432;51.902;10.844;2024-02-04T07:42:29;3.58;;;1.40;;
53545;SDS011;39432;51.902;10.844;2024-02-04T07:44:59;4.15;;;1.45;;
53545;SDS011;39432;51.902;10.844;2024-02-04T07:47:35;2.58;;;1.30;;
53545;SDS011;39432;51.902;10.844;2024-02-04T07:50:06;2.53;;;1.45;;
53545;SDS011;39432;51.902;10.844;2024-02-04T07:52:38;2.47;;;1.00;;
53545;SDS011;39432;51.902;10.844;2024-02-04T07:55:10;2.15;;;1.00;;
53545;SDS011;39432;51.902;10.844;2024-02-04T07:57:43;2.75;;;1.00;;
53545;SDS011;39432;51.902;10.844;2024-02-04T08:00:13;1.45;;;0.80;;
53545;SDS011;39432;51.902;10.844;2024-02-04T08:02:44;1.75;;;0.93;;
53545;SDS011;39432;51.902;10.844;2024-02-04T08:05:14;2.47;;;1.00;;
53545;SDS011;39432;51.902;10.844;2024-02-04T08:07:44;1.50;;;0.80;;
53545;SDS011;39432;51.902;10.844;2024-02-04T08:10:14;2.17;;;1.00;;
53545;SDS011;39432;51.902;10.844;2024-02-04T08:12:48;2.70;;;1.10;;
53545;SDS011;39432;51.902;10.844;2024-02-04T08:15:20;1.35;;;0.70;;
53545;SDS011;39432;51.902;10.844;2024-02-04T08:17:50;1.60;;;0.80;;
53545;SDS011;39432;51.902;10.844;2024-02-04T08:20:20;1.30;;;0.70;;
53545;SDS011;39432;51.902;10.844;2024-02-04T08:22:51;1.85;;;1.00;;
53545;SDS011;39432;51.902;10.844;2024-02-04T08:25:21;1.88;;;0.80;;
53545;SDS011;39432;51.902;10.844;2024-02-04T08:27:54;3.28;;;1.02;;
53545;SDS011;39432;51.902;10.844;2024-02-04T08:30:25;1.73;;;1.00;;
53545;SDS011;39432;51.902;10.844;2024-02-04T08:32:55;1.33;;;0.70;;
53545;SDS011;39432;51.902;10.844;2024-02-04T08:35:24;3.65;;;1.00;;
53545;SDS011;39432;51.902;10.844;2024-02-04T08:37:54;3.10;;;0.95;;
53545;SDS011;39432;51.902;10.844;2024-02-04T08:40:24;1.52;;;0.95;;
53545;SDS011;39432;51.902;10.844;2024-02-04T08:42:57;1.63;;;1.00;;
53545;SDS011;39432;51.902;10.844;2024-02-04T08:45:27;1.45;;;0.75;;
53545;SDS011;39432;51.902;10.844;2024-02-04T08:47:56;2.13;;;0.90;;
53545;SDS011;39432;51.902;10.844;2024-02-04T08:50:26;1.40;;;1.02;;
53545;SDS011;39432;51.902;10.844;2024-02-04T08:52:57;2.25;;;1.10;;
53545;SDS011;39432;51.902;10.844;2024-02-04T08:55:27;2.45;;;1.17;;
53545;SDS011;39432;51.902;10.844;2024-02-04T08:58:00;1.65;;;0.90;;
53545;SDS011;39432;51.902;10.844;2024-02-04T09:00:30;1.90;;;1.10;;
53545;SDS011;39432;51.902;10.844;2024-02-04T09:03:00;4.22;;;0.93;;
53545;SDS011;39432;51.902;10.844;2024-02-04T09:05:30;1.70;;;1.05;;
53545;SDS011;39432;51.902;10.844;2024-02-04T09:08:00;2.50;;;1.15;;
53545;SDS011;39432;51.902;10.844;2024-02-04T09:10:30;2.75;;;1.20;;
53545;SDS011;39432;51.902;10.844;2024-02-04T09:13:02;2.33;;;1.30;;
53545;SDS011;39432;51.902;10.844;2024-02-04T09:15:32;2.60;;;1.50;;
53545;SDS011;39432;51.902;10.844;2024-02-04T09:18:03;5.72;;;1.73;;
53545;SDS011;39432;51.902;10.844;2024-02-04T09:20:34;3.47;;;1.90;;
53545;SDS011;39432;51.902;10.844;2024-02-04T09:23:04;3.20;;;1.83;;
53545;SDS011;39432;51.902;10.844;2024-02-04T09:25:34;4.00;;;2.03;;
53545;SDS011;39432;51.902;10.844;2024-02-04T09:28:07;5.72;;;1.95;;
53545;SDS011;39432;51.902;10.844;2024-02-04T09:30:37;3.30;;;1.63;;
53545;SDS011;39432;51.902;10.844;2024-02-04T09:33:07;2.55;;;1.70;;
53545;SDS011;39432;51.902;10.844;2024-02-04T09:35:37;6.03;;;1.90;;
53545;SDS011;39432;51.902;10.844;2024-02-04T09:38:08;3.28;;;2.00;;
53545;SDS011;39432;51.902;10.844;2024-02-04T09:40:40;2.63;;;1.52;;
53545;SDS011;39432;51.902;10.844;2024-02-04T09:43:13;2.30;;;1.45;;
53545;SDS011;39432;51.902;10.844;2024-02-04T09:45:44;2.30;;;1.77;;
53545;SDS011;39432;51.902;10.844;2024-02-04T09:48:14;4.05;;;1.88;;
53545;SDS011;39432;51.902;10.844;2024-02-04T09:50:47;2.58;;;1.60;;
53545;SDS011;39432;51.902;10.844;2024-02-04T09:53:21;1.80;;;1.17;;
53545;SDS011;39432;51.902;10.844;2024-02-04T09:55:56;3.00;;;1.40;;
53545;SDS011;39432;51.902;10.844;2024-02-04T09:58:30;3.30;;;1.55;;
53545;SDS011;39432;51.902;10.844;2024-02-04T10:01:04;2.53;;;1.40;;
53545;SDS011;39432;51.902;10.844;2024-02-04T10:03:36;1.98;;;1.27;;
53545;SDS011;39432;51.902;10.844;2024-02-04T10:06:06;2.75;;;1.50;;
53545;SDS011;39432;51.902;10.844;2024-02-04T10:08:37;2.50;;;1.17;;
53545;SDS011;39432;51.902;10.844;2024-02-04T10:11:08;3.03;;;1.50;;
53545;SDS011;39432;51.902;10.844;2024-02-04T10:13:44;3.40;;;1.35;;
53545;SDS011;39432;51.902;10.844;2024-02-04T10:16:15;5.10;;;1.17;;
53545;SDS011;39432;51.902;10.844;2024-02-04T10:18:46;2.50;;;0.90;;
53545;SDS011;39432;51.902;10.844;2024-02-04T10:21:17;3.10;;;1.25;;
53545;SDS011;39432;51.902;10.844;2024-02-04T10:23:49;2.60;;;0.93;;
53545;SDS011;39432;51.902;10.844;2024-02-04T10:26:19;1.30;;;0.80;;
53545;SDS011;39432;51.902;10.844;2024-02-04T10:28:52;1.85;;;0.98;;
53545;SDS011;39432;51.902;10.844;2024-02-04T10:31:22;3.72;;;1.23;;
53545;SDS011;39432;51.902;10.844;2024-02-04T10:33:52;4.97;;;1.02;;
53545;SDS011;39432;51.902;10.844;2024-02-04T10:36:22;2.33;;;0.85;;
53545;SDS011;39432;51.902;10.844;2024-02-04T10:38:52;2.83;;;1.00;;
53545;SDS011;39432;51.902;10.844;2024-02-04T10:41:22;2.67;;;0.80;;
53545;SDS011;39432;51.902;10.844;2024-02-04T10:43:56;2.67;;;1.00;;
53545;SDS011;39432;51.902;10.844;2024-02-04T10:46:29;3.25;;;0.77;;
53545;SDS011;39432;51.902;10.844;2024-02-04T10:49:03;2.42;;;0.93;;
53545;SDS011;39432;51.902;10.844;2024-02-04T10:51:36;2.80;;;0.80;;
53545;SDS011;39432;51.902;10.844;2024-02-04T10:54:08;14.25;;;1.23;;
53545;SDS011;39432;51.902;10.844;2024-02-04T10:56:42;2.78;;;1.10;;
53545;SDS011;39432;51.902;10.844;2024-02-04T10:59:17;2.60;;;0.80;;
53545;SDS011;39432;51.902;10.844;2024-02-04T11:01:48;4.85;;;0.90;;
53545;SDS011;39432;51.902;10.844;2024-02-04T11:04:19;3.88;;;1.40;;
53545;SDS011;39432;51.902;10.844;2024-02-04T11:06:49;1.85;;;0.82;;
53545;SDS011;39432;51.902;10.844;2024-02-04T11:09:20;3.33;;;0.90;;
53545;SDS011;39432;51.902;10.844;2024-02-04T11:11:51;8.63;;;0.90;;
53545;SDS011;39432;51.902;10.844;2024-02-04T11:14:27;2.20;;;1.02;;
53545;SDS011;39432;51.902;10.844;2024-02-04T11:17:07;2.10;;;0.60;;
53545;SDS011;39432;51.902;10.844;2024-02-04T11:19:54;2.70;;;0.88;;
53545;SDS011;39432;51.902;10.844;2024-02-04T11:22:38;4.05;;;0.90;;
53545;SDS011;39432;51.902;10.844;2024-02-04T11:28:12;5.22;;;0.90;;
53545;SDS011;39432;51.902;10.844;2024-02-04T11:30:49;2.95;;;0.80;;
53545;SDS011;39432;51.902;10.844;2024-02-04T11:33:20;4.22;;;0.90;;
53545;SDS011;39432;51.902;10.844;2024-02-04T11:36:00;2.75;;;0.80;;
53545;SDS011;39432;51.902;10.844;2024-02-04T11:38:35;7.00;;;0.98;;
53545;SDS011;39432;51.902;10.844;2024-02-04T11:41:06;4.03;;;1.10;;
53545;SDS011;39432;51.902;10.844;2024-02-04T11:43:37;3.83;;;1.17;;
53545;SDS011;39432;51.902;10.844;2024-02-04T11:46:15;2.33;;;0.70;;
53545;SDS011;39432;51.902;10.844;2024-02-04T11:48:51;4.45;;;1.10;;
53545;SDS011;39432;51.902;10.844;2024-02-04T11:51:23;5.32;;;1.30;;
53545;SDS011;39432;51.902;10.844;2024-02-04T11:53:54;2.75;;;0.80;;
53545;SDS011;39432;51.902;10.844;2024-02-04T11:56:25;1.83;;;0.82;;
53545;SDS011;39432;51.902;10.844;2024-02-04T11:58:56;2.33;;;0.80;;
53545;SDS011;39432;51.902;10.844;2024-02-04T12:01:28;4.28;;;0.95;;
53545;SDS011;39432;51.902;10.844;2024-02-04T12:04:08;4.63;;;0.98;;
53545;SDS011;39432;51.902;10.844;2024-02-04T12:06:39;2.05;;;0.98;;
53545;SDS011;39432;51.902;10.844;2024-02-04T12:09:10;4.10;;;1.13;;
53545;SDS011;39432;51.902;10.844;2024-02-04T12:11:40;5.18;;;1.20;;
53545;SDS011;39432;51.902;10.844;2024-02-04T12:14:11;5.72;;;1.40;;
53545;SDS011;39432;51.902;10.844;2024-02-04T12:16:45;3.40;;;0.90;;
53545;SDS011;39432;51.902;10.844;2024-02-04T12:19:16;3.25;;;0.93;;
53545;SDS011;39432;51.902;10.844;2024-02-04T12:21:46;2.28;;;0.88;;
53545;SDS011;39432;51.902;10.844;2024-02-04T12:24:16;3.17;;;1.05;;
53545;SDS011;39432;51.902;10.844;2024-02-04T12:26:46;1.35;;;0.80;;
53545;SDS011;39432;51.902;10.844;2024-02-04T12:29:16;3.03;;;0.75;;
53545;SDS011;39432;51.902;10.844;2024-02-04T12:31:57;1.60;;;0.70;;
53545;SDS011;39432;51.902;10.844;2024-02-04T12:34:24;4.95;;;1.52;;
53545;SDS011;39432;51.902;10.844;2024-02-04T12:36:57;6.82;;;1.40;;
53545;SDS011;39432;51.902;10.844;2024-02-04T12:39:29;3.13;;;0.63;;
53545;SDS011;39432;51.902;10.844;2024-02-04T12:42:00;4.40;;;1.05;;
53545;SDS011;39432;51.902;10.844;2024-02-04T12:44:30;4.80;;;1.10;;
53545;SDS011;39432;51.902;10.844;2024-02-04T12:47:03;3.63;;;1.05;;
53545;SDS011;39432;51.902;10.844;2024-02-04T12:49:33;3.05;;;0.90;;
53545;SDS011;39432;51.902;10.844;2024-02-04T12:52:04;2.38;;;0.70;;
53545;SDS011;39432;51.902;10.844;2024-02-04T12:54:40;3.17;;;0.75;;
53545;SDS011;39432;51.902;10.844;2024-02-04T12:57:21;7.03;;;0.95;;
53545;SDS011;39432;51.902;10.844;2024-02-04T12:59:51;4.15;;;0.60;;
53545;SDS011;39432;51.902;10.844;2024-02-04T13:02:24;1.60;;;0.63;;
53545;SDS011;39432;51.902;10.844;2024-02-04T13:04:54;4.45;;;1.00;;
53545;SDS011;39432;51.902;10.844;2024-02-04T13:07:24;1.85;;;0.80;;
53545;SDS011;39432;51.902;10.844;2024-02-04T13:09:57;2.03;;;0.70;;
53545;SDS011;39432;51.902;10.844;2024-02-04T13:12:28;1.83;;;0.70;;
53545;SDS011;39432;51.902;10.844;2024-02-04T13:15:00;3.00;;;1.00;;
53545;SDS011;39432;51.902;10.844;2024-02-04T13:17:33;2.53;;;0.70;;
53545;SDS011;39432;51.902;10.844;2024-02-04T13:20:03;2.65;;;0.70;;
53545;SDS011;39432;51.902;10.844;2024-02-04T13:22:34;1.70;;;0.70;;
53545;SDS011;39432;51.902;10.844;2024-02-04T13:25:04;4.93;;;0.98;;
53545;SDS011;39432;51.902;10.844;2024-02-04T13:27:36;3.03;;;0.90;;
53545;SDS011;39432;51.902;10.844;2024-02-04T13:30:06;1.70;;;0.68;;
53545;SDS011;39432;51.902;10.844;2024-02-04T13:32:41;4.80;;;1.05;;
53545;SDS011;39432;51.902;10.844;2024-02-04T13:35:12;3.35;;;0.80;;
53545;SDS011;39432;51.902;10.844;2024-02-04T13:37:46;5.93;;;1.10;;
53545;SDS011;39432;51.902;10.844;2024-02-04T13:40:18;3.30;;;1.13;;
53545;SDS011;39432;51.902;10.844;2024-02-04T13:42:51;2.05;;;0.93;;
53545;SDS011;39432;51.902;10.844;2024-02-04T13:45:21;2.65;;;1.08;;
53545;SDS011;39432;51.902;10.844;2024-02-04T13:47:54;4.28;;;1.73;;
53545;SDS011;39432;51.902;10.844;2024-02-04T13:50:25;4.45;;;1.10;;
53545;SDS011;39432;51.902;10.844;2024-02-04T13:52:55;5.40;;;1.00;;
53545;SDS011;39432;51.902;10.844;2024-02-04T13:55:26;1.73;;;0.80;;
53545;SDS011;39432;51.902;10.844;2024-02-04T13:57:56;2.85;;;0.90;;
53545;SDS011;39432;51.902;10.844;2024-02-04T14:00:27;1.77;;;0.90;;
53545;SDS011;39432;51.902;10.844;2024-02-04T14:02:59;2.10;;;0.90;;
53545;SDS011;39432;51.902;10.844;2024-02-04T14:05:29;3.50;;;1.00;;
53545;SDS011;39432;51.902;10.844;2024-02-04T14:08:00;2.85;;;1.10;;
53545;SDS011;39432;51.902;10.844;2024-02-04T14:10:30;1.45;;;0.60;;
53545;SDS011;39432;51.902;10.844;2024-02-04T14:13:00;3.05;;;0.93;;
53545;SDS011;39432;51.902;10.844;2024-02-04T14:15:34;5.03;;;1.20;;
53545;SDS011;39432;51.902;10.844;2024-02-04T14:18:06;9.00;;;1.05;;
53545;SDS011;39432;51.902;10.844;2024-02-04T14:20:37;4.53;;;1.17;;
53545;SDS011;39432;51.902;10.844;2024-02-04T14:23:07;3.75;;;1.50;;
53545;SDS011;39432;51.902;10.844;2024-02-04T14:25:37;2.15;;;1.10;;
53545;SDS011;39432;51.902;10.844;2024-02-04T14:28:07;3.67;;;1.30;;
53545;SDS011;39432;51.902;10.844;2024-02-04T14:30:37;7.50;;;1.17;;
53545;SDS011;39432;51.902;10.844;2024-02-04T14:33:10;2.53;;;1.23;;
53545;SDS011;39432;51.902;10.844;2024-02-04T14:35:40;1.70;;;1.10;;
53545;SDS011;39432;51.902;10.844;2024-02-04T14:38:10;3.67;;;1.20;;
53545;SDS011;39432;51.902;10.844;2024-02-04T14:40:41;3.47;;;1.35;;
53545;SDS011;39432;51.902;10.844;2024-02-04T14:43:12;5.78;;;1.30;;
53545;SDS011;39432;51.902;10.844;2024-02-04T14:45:45;2.28;;;1.15;;
53545;SDS011;39432;51.902;10.844;2024-02-04T14:48:18;3.38;;;1.23;;
53545;SDS011;39432;51.902;10.844;2024-02-04T14:50:48;3.72;;;1.20;;
53545;SDS011;39432;51.902;10.844;2024-02-04T14:53:18;3.78;;;1.27;;
53545;SDS011;39432;51.902;10.844;2024-02-04T14:55:48;20.55;;;1.70;;
53545;SDS011;39432;51.902;10.844;2024-02-04T14:58:18;2.00;;;1.20;;
53545;SDS011;39432;51.902;10.844;2024-02-04T15:00:48;2.38;;;1.00;;